Time;durP1;ratioP1;P1;durP2;ratioP2;P2;SDS_P1;SDS_P2;PMS_P1;PMS_P2;Temp;Humidity;BMP_temperature;BMP_pressure;BME280_temperature;BME280_humidity;BME280_pressure;Samples;Min_cycle;Max_cycle;Signal;HPM_P1;HPM_P2
2022/03/18 00:01:52;;;;;;;3.67;1.35;;;;;;;;;;5087379;28;20075;-71
2022/03/18 00:04:18;;;;;;;6.35;1.52;;;;;;;;;;5087012;28;20055;-71
2022/03/18 00:06:44;;;;;;;3.90;1.40;;;;;;;;;;5086780;28;20048;-71
2022/03/18 00:09:10;;;;;;;2.78;1.20;;;;;;;;;;5086485;28;20584;-70
2022/03/18 00:11:36;;;;;;;2.85;1.50;;;;;;;;;;5087364;28;20123;-70
2022/03/18 00:14:03;;;;;;;6.05;1.70;;;;;;;;;;5086668;28;20122;-70
2022/03/18 00:16:29;;;;;;;4.43;1.48;;;;;;;;;;5086933;28;20044;-71
2022/03/18 00:18:56;;;;;;;4.35;1.45;;;;;;;;;;5086499;28;20078;-71
2022/03/18 00:21:23;;;;;;;3.30;1.38;;;;;;;;;;5064468;28;20057;-71
2022/03/18 00:23:49;;;;;;;3.50;1.33;;;;;;;;;;5086226;28;20054;-71
2022/03/18 00:26:16;;;;;;;4.30;1.25;;;;;;;;;;5068392;28;20043;-71
2022/03/18 00:28:42;;;;;;;5.20;1.45;;;;;;;;;;5086070;28;20131;-71
2022/03/18 00:31:08;;;;;;;3.85;1.05;;;;;;;;;;5068543;28;20105;-71
2022/03/18 00:33:34;;;;;;;3.58;1.38;;;;;;;;;;5086821;28;20048;-71
2022/03/18 00:36:01;;;;;;;6.50;2.50;;;;;;;;;;5086691;28;20066;-71
2022/03/18 00:38:27;;;;;;;2.80;1.33;;;;;;;;;;5086290;28;20459;-71
2022/03/18 00:40:56;;;;;;;2.80;1.27;;;;;;;;;;5068040;28;20040;-71
2022/03/18 00:43:22;;;;;;;4.82;1.23;;;;;;;;;;5086115;28;20094;-71
2022/03/18 00:45:49;;;;;;;3.58;1.52;;;;;;;;;;5068063;28;20044;-71
2022/03/18 00:53:45;;;;;;;3.13;1.50;;;;;;;;;;5084401;28;20151;-71
2022/03/18 00:56:11;;;;;;;3.55;1.40;;;;;;;;;;5086502;28;20561;-71
2022/03/18 00:58:37;;;;;;;3.65;1.45;;;;;;;;;;5085360;28;20131;-70
2022/03/18 01:01:03;;;;;;;4.10;1.30;;;;;;;;;;5086143;28;20412;-70
2022/03/18 01:03:29;;;;;;;2.80;1.10;;;;;;;;;;5085862;28;20040;-69
2022/03/18 01:05:55;;;;;;;8.88;3.00;;;;;;;;;;5085059;28;20123;-72
2022/03/18 01:08:21;;;;;;;3.88;1.50;;;;;;;;;;5086071;28;20083;-71
2022/03/18 01:10:48;;;;;;;4.03;1.48;;;;;;;;;;5085677;28;20119;-69
2022/03/18 01:13:14;;;;;;;5.43;1.52;;;;;;;;;;5085222;28;20072;-69
2022/03/18 01:15:40;;;;;;;6.68;1.30;;;;;;;;;;5085418;28;20439;-68
2022/03/18 01:18:06;;;;;;;5.68;1.60;;;;;;;;;;5085690;28;20039;-68
2022/03/18 01:20:33;;;;;;;3.78;1.60;;;;;;;;;;5085304;28;20044;-68
2022/03/18 01:23:00;;;;;;;6.70;1.65;;;;;;;;;;5085812;28;20043;-68
2022/03/18 01:25:26;;;;;;;4.60;1.48;;;;;;;;;;5085185;28;20040;-69
2022/03/18 01:27:52;;;;;;;8.35;1.67;;;;;;;;;;5084975;28;20470;-68
2022/03/18 01:30:18;;;;;;;3.47;1.38;;;;;;;;;;5085410;28;20052;-69
2022/03/18 01:32:44;;;;;;;4.80;1.65;;;;;;;;;;5066827;28;20158;-69
2022/03/18 01:35:11;;;;;;;7.20;1.33;;;;;;;;;;5084389;28;20055;-69
2022/03/18 01:37:37;;;;;;;3.80;1.60;;;;;;;;;;5085673;28;20040;-69
2022/03/18 01:40:04;;;;;;;3.17;1.50;;;;;;;;;;5085326;28;20047;-69
2022/03/18 01:42:30;;;;;;;5.15;1.40;;;;;;;;;;5084866;28;20402;-68
2022/03/18 01:44:57;;;;;;;4.00;1.55;;;;;;;;;;5067090;28;20036;-69
2022/03/18 01:47:24;;;;;;;5.75;1.60;;;;;;;;;;5084621;28;20051;-68
2022/03/18 01:49:50;;;;;;;3.65;1.40;;;;;;;;;;5066752;28;20539;-69
2022/03/18 01:52:16;;;;;;;5.43;1.23;;;;;;;;;;5085753;28;20066;-68
2022/03/18 01:54:45;;;;;;;7.65;1.42;;;;;;;;;;5070180;28;20476;-68
2022/03/18 01:57:12;;;;;;;3.20;1.17;;;;;;;;;;5070989;28;20382;-69
2022/03/18 01:59:38;;;;;;;3.72;1.30;;;;;;;;;;5087679;28;20042;-69
2022/03/18 02:02:04;;;;;;;6.57;1.60;;;;;;;;;;5070326;28;20046;-69
2022/03/18 02:04:34;;;;;;;2.85;1.25;;;;;;;;;;5088549;28;20084;-70
2022/03/18 02:07:00;;;;;;;3.92;1.65;;;;;;;;;;5089270;28;20036;-70
2022/03/18 02:09:26;;;;;;;3.85;1.25;;;;;;;;;;5087952;28;20036;-70
2022/03/18 02:11:52;;;;;;;4.10;1.45;;;;;;;;;;5087668;28;20032;-70
2022/03/18 02:14:38;;;;;;;3.28;1.30;;;;;;;;;;5088483;28;20084;-70
2022/03/18 02:17:06;;;;;;;4.38;1.60;;;;;;;;;;5087579;28;20040;-70
2022/03/18 02:19:33;;;;;;;2.70;1.30;;;;;;;;;;5088020;28;20497;-70
2022/03/18 02:21:59;;;;;;;3.28;1.40;;;;;;;;;;5088186;28;20123;-70
2022/03/18 02:24:25;;;;;;;3.72;1.52;;;;;;;;;;5070296;28;20047;-70
2022/03/18 02:26:52;;;;;;;2.60;1.20;;;;;;;;;;5088374;28;20055;-70
2022/03/18 02:29:19;;;;;;;2.65;1.20;;;;;;;;;;5087823;28;20048;-70
2022/03/18 02:31:45;;;;;;;4.88;1.48;;;;;;;;;;5087897;28;20036;-69
2022/03/18 02:34:11;;;;;;;1.88;1.20;;;;;;;;;;5087504;28;20055;-70
2022/03/18 02:36:37;;;;;;;3.00;1.10;;;;;;;;;;5088756;28;20703;-69
2022/03/18 02:39:04;;;;;;;2.22;0.93;;;;;;;;;;5088088;28;20343;-69
2022/03/18 02:41:30;;;;;;;4.60;1.92;;;;;;;;;;5088683;28;20048;-69
2022/03/18 02:43:56;;;;;;;2.92;1.40;;;;;;;;;;5088143;28;20040;-69
2022/03/18 02:46:22;;;;;;;3.75;1.40;;;;;;;;;;5088541;28;20044;-69
2022/03/18 02:48:48;;;;;;;3.28;1.30;;;;;;;;;;5088152;28;20127;-69
2022/03/18 02:51:15;;;;;;;4.15;1.73;;;;;;;;;;5089383;28;20143;-69
2022/03/18 02:53:41;;;;;;;3.53;1.20;;;;;;;;;;5088028;28;20036;-69
2022/03/18 02:56:07;;;;;;;3.63;1.30;;;;;;;;;;5089051;28;20051;-69
2022/03/18 02:58:35;;;;;;;3.40;1.10;;;;;;;;;;5088030;28;20048;-69
2022/03/18 03:01:01;;;;;;;3.45;1.40;;;;;;;;;;5088562;28;20044;-69
2022/03/18 03:03:28;;;;;;;4.38;1.42;;;;;;;;;;5088542;28;20416;-69
2022/03/18 03:08:39;;;;;;;6.50;1.35;;;;;;;;;;5088700;28;20093;-72
2022/03/18 03:11:05;;;;;;;4.53;1.80;;;;;;;;;;5053564;28;20052;-69
2022/03/18 03:13:32;;;;;;;5.45;1.58;;;;;;;;;;5087776;28;20070;-69
2022/03/18 03:15:59;;;;;;;5.30;1.40;;;;;;;;;;5088440;28;20044;-69
2022/03/18 03:18:25;;;;;;;4.43;1.50;;;;;;;;;;5087958;28;20050;-68
2022/03/18 03:20:51;;;;;;;9.63;1.73;;;;;;;;;;5087713;28;20054;-68
2022/03/18 03:23:19;;;;;;;4.07;1.40;;;;;;;;;;5070162;28;20072;-68
2022/03/18 03:25:45;;;;;;;5.60;1.50;;;;;;;;;;5087532;28;20044;-68
2022/03/18 03:28:11;;;;;;;4.05;1.60;;;;;;;;;;5087603;28;20099;-69
2022/03/18 03:30:38;;;;;;;7.15;1.55;;;;;;;;;;5087712;28;20200;-68
2022/03/18 03:33:04;;;;;;;4.72;1.35;;;;;;;;;;5087580;28;20145;-68
2022/03/18 03:35:30;;;;;;;3.38;1.40;;;;;;;;;;5068845;28;20052;-69
2022/03/18 03:37:56;;;;;;;4.35;1.60;;;;;;;;;;5052180;28;20123;-69
2022/03/18 03:40:24;;;;;;;5.30;1.42;;;;;;;;;;5068659;28;20381;-68
2022/03/18 03:42:50;;;;;;;4.05;1.30;;;;;;;;;;5087620;28;20086;-68
2022/03/18 03:45:16;;;;;;;5.72;1.65;;;;;;;;;;5087245;28;20498;-68
2022/03/18 03:47:42;;;;;;;3.38;1.33;;;;;;;;;;5086918;28;20090;-68
2022/03/18 03:50:09;;;;;;;2.65;1.13;;;;;;;;;;5087501;28;20047;-68
2022/03/18 03:52:35;;;;;;;3.70;1.60;;;;;;;;;;5086824;28;20071;-68
2022/03/18 03:55:02;;;;;;;4.30;1.80;;;;;;;;;;5068651;28;20051;-68
2022/03/18 03:57:28;;;;;;;5.93;1.70;;;;;;;;;;5087235;28;20044;-68
2022/03/18 03:59:54;;;;;;;3.38;1.35;;;;;;;;;;5068445;28;20044;-69
2022/03/18 04:02:20;;;;;;;2.75;1.27;;;;;;;;;;5086986;28;20040;-68
2022/03/18 04:04:47;;;;;;;5.25;1.80;;;;;;;;;;5068677;28;20087;-68
2022/03/18 04:07:13;;;;;;;3.35;1.42;;;;;;;;;;5086260;28;20386;-68
2022/03/18 04:09:39;;;;;;;4.03;1.45;;;;;;;;;;5068621;28;20994;-68
2022/03/18 04:12:06;;;;;;;3.80;1.30;;;;;;;;;;5086568;28;20040;-68
2022/03/18 04:14:32;;;;;;;2.47;0.98;;;;;;;;;;5086853;28;20047;-68
2022/03/18 04:16:58;;;;;;;4.78;1.55;;;;;;;;;;5085571;28;20343;-68
2022/03/18 04:19:24;;;;;;;3.75;1.65;;;;;;;;;;5086354;28;20491;-68
2022/03/18 04:21:50;;;;;;;2.35;1.20;;;;;;;;;;5086394;28;20036;-68
2022/03/18 04:24:16;;;;;;;2.83;1.38;;;;;;;;;;5086392;28;20047;-68
2022/03/18 04:26:42;;;;;;;3.15;1.40;;;;;;;;;;5087111;28;20433;-69
2022/03/18 04:29:08;;;;;;;4.43;1.40;;;;;;;;;;5085990;28;20086;-68
2022/03/18 04:31:35;;;;;;;3.15;1.50;;;;;;;;;;5086153;28;20051;-68
2022/03/18 04:34:01;;;;;;;3.38;1.20;;;;;;;;;;5086091;28;20052;-68
2022/03/18 04:36:27;;;;;;;5.38;2.05;;;;;;;;;;5068694;28;20535;-68
2022/03/18 04:38:53;;;;;;;2.72;1.30;;;;;;;;;;5086107;28;20066;-68
2022/03/18 04:41:19;;;;;;;3.17;1.60;;;;;;;;;;5086647;28;20048;-68
2022/03/18 04:43:45;;;;;;;4.82;1.30;;;;;;;;;;5085806;28;20105;-69
2022/03/18 04:46:11;;;;;;;3.17;1.23;;;;;;;;;;5086334;28;20468;-68
2022/03/18 04:48:37;;;;;;;2.63;1.17;;;;;;;;;;5067764;28;20470;-69
2022/03/18 04:51:04;;;;;;;3.72;1.25;;;;;;;;;;5085465;28;20039;-69
2022/03/18 04:53:30;;;;;;;2.05;1.15;;;;;;;;;;5085828;28;20065;-69
2022/03/18 04:55:56;;;;;;;4.75;1.48;;;;;;;;;;5085381;28;20370;-69
2022/03/18 04:58:22;;;;;;;3.88;1.20;;;;;;;;;;5067747;28;20768;-69
2022/03/18 05:00:48;;;;;;;2.65;1.30;;;;;;;;;;5085384;28;20040;-68
2022/03/18 05:03:14;;;;;;;3.70;1.30;;;;;;;;;;5085683;28;20143;-69
2022/03/18 05:05:40;;;;;;;5.18;1.98;;;;;;;;;;5083483;28;20036;-67
2022/03/18 05:08:06;;;;;;;3.10;1.25;;;;;;;;;;5085280;28;20047;-69
2022/03/18 05:10:33;;;;;;;2.45;1.10;;;;;;;;;;5067289;28;20043;-69
2022/03/18 05:12:59;;;;;;;5.38;1.35;;;;;;;;;;5085136;28;20051;-69
2022/03/18 05:15:25;;;;;;;3.97;1.60;;;;;;;;;;5085632;28;20044;-69
2022/03/18 05:17:54;;;;;;;3.03;1.40;;;;;;;;;;5085491;28;20043;-69
2022/03/18 05:20:20;;;;;;;2.25;1.27;;;;;;;;;;5085507;28;20112;-69
2022/03/18 05:22:47;;;;;;;5.00;1.45;;;;;;;;;;5084697;28;20755;-69
2022/03/18 05:25:13;;;;;;;2.75;1.20;;;;;;;;;;5085450;28;20043;-71
2022/03/18 05:27:41;;;;;;;4.43;1.73;;;;;;;;;;5087063;28;20040;-71
2022/03/18 05:30:09;;;;;;;3.40;1.60;;;;;;;;;;5053696;28;20048;-70
2022/03/18 05:32:35;;;;;;;4.35;1.35;;;;;;;;;;5089277;28;20071;-69
2022/03/18 05:35:01;;;;;;;4.60;1.70;;;;;;;;;;5089103;28;20083;-69
2022/03/18 05:37:27;;;;;;;2.88;1.40;;;;;;;;;;5089418;28;20040;-69
2022/03/18 05:39:53;;;;;;;5.68;2.10;;;;;;;;;;5089280;28;20437;-69
2022/03/18 05:42:19;;;;;;;3.90;1.50;;;;;;;;;;5088686;28;20036;-69
2022/03/18 05:44:45;;;;;;;3.75;1.50;;;;;;;;;;5088999;28;20044;-70
2022/03/18 05:47:12;;;;;;;4.82;1.58;;;;;;;;;;5088945;28;20114;-69
2022/03/18 05:49:38;;;;;;;4.32;1.50;;;;;;;;;;5089032;28;20044;-69
2022/03/18 05:52:04;;;;;;;7.75;1.80;;;;;;;;;;5088520;28;20444;-69
2022/03/18 05:54:30;;;;;;;5.25;1.92;;;;;;;;;;5068089;28;20044;-68
2022/03/18 05:56:56;;;;;;;5.22;1.48;;;;;;;;;;5089190;28;20128;-68
2022/03/18 05:59:26;;;;;;;4.63;1.88;;;;;;;;;;5087840;28;20043;-68
2022/03/18 06:01:53;;;;;;;6.05;1.65;;;;;;;;;;5070962;28;20452;-68
2022/03/18 06:04:19;;;;;;;4.57;1.67;;;;;;;;;;5088409;28;20718;-69
2022/03/18 06:06:47;;;;;;;3.35;1.40;;;;;;;;;;5088683;28;20083;-69
2022/03/18 06:11:58;;;;;;;2.38;1.20;;;;;;;;;;5088873;28;20074;-68
2022/03/18 06:14:25;;;;;;;3.80;1.40;;;;;;;;;;5087948;28;20112;-69
2022/03/18 06:16:56;;;;;;;3.65;1.42;;;;;;;;;;5087869;28;20048;-70
2022/03/18 06:19:22;;;;;;;3.72;1.33;;;;;;;;;;5070887;28;20075;-70
2022/03/18 06:21:48;;;;;;;4.55;1.50;;;;;;;;;;5088207;28;20044;-70
2022/03/18 06:24:15;;;;;;;2.53;1.40;;;;;;;;;;5069938;28;20044;-69
2022/03/18 06:26:41;;;;;;;2.08;1.15;;;;;;;;;;5089698;28;20108;-69
2022/03/18 06:29:08;;;;;;;3.78;1.20;;;;;;;;;;5086670;28;20401;-68
2022/03/18 06:31:35;;;;;;;2.47;1.30;;;;;;;;;;5088048;28;20368;-69
2022/03/18 06:34:01;;;;;;;3.25;1.25;;;;;;;;;;5089786;28;20102;-68
2022/03/18 06:36:28;;;;;;;2.90;1.40;;;;;;;;;;5089040;28;20098;-69
2022/03/18 06:38:54;;;;;;;2.35;1.13;;;;;;;;;;5087182;28;20101;-69
2022/03/18 06:41:20;;;;;;;1.80;1.10;;;;;;;;;;5069862;28;20056;-69
2022/03/18 06:43:47;;;;;;;3.90;1.33;;;;;;;;;;5088577;28;20078;-69
2022/03/18 06:46:14;;;;;;;2.72;1.40;;;;;;;;;;5088439;28;20185;-69
2022/03/18 06:48:40;;;;;;;3.95;1.55;;;;;;;;;;5088144;28;20066;-69
2022/03/18 06:51:06;;;;;;;3.25;1.40;;;;;;;;;;5088384;28;20040;-68
2022/03/18 06:53:32;;;;;;;2.70;1.38;;;;;;;;;;5088886;28;20460;-68
2022/03/18 06:55:58;;;;;;;3.60;1.58;;;;;;;;;;5088252;28;20412;-68
2022/03/18 06:58:25;;;;;;;3.90;1.38;;;;;;;;;;5087985;28;20048;-68
2022/03/18 07:00:51;;;;;;;2.97;1.38;;;;;;;;;;5088341;28;20511;-68
2022/03/18 07:03:17;;;;;;;3.10;1.42;;;;;;;;;;5088436;28;20048;-69
2022/03/18 07:05:43;;;;;;;2.70;1.17;;;;;;;;;;5088688;28;20052;-68
2022/03/18 07:08:09;;;;;;;2.38;1.30;;;;;;;;;;5088431;28;20048;-69
2022/03/18 07:10:35;;;;;;;4.22;1.48;;;;;;;;;;5087634;28;20036;-68
2022/03/18 07:13:01;;;;;;;3.33;1.23;;;;;;;;;;5088092;28;20348;-68
2022/03/18 07:15:27;;;;;;;3.00;1.35;;;;;;;;;;5088350;28;20048;-68
2022/03/18 07:17:59;;;;;;;2.30;1.15;;;;;;;;;;5087319;28;20071;-68
2022/03/18 07:20:30;;;;;;;2.92;1.30;;;;;;;;;;5085972;28;20036;-68
2022/03/18 07:23:02;;;;;;;3.10;1.10;;;;;;;;;;5087629;28;20044;-68
2022/03/18 07:25:28;;;;;;;3.33;1.20;;;;;;;;;;5086858;28;20426;-68
2022/03/18 07:27:54;;;;;;;4.80;1.83;;;;;;;;;;5069088;28;20405;-68
2022/03/18 07:30:20;;;;;;;2.95;1.10;;;;;;;;;;5087627;28;20036;-68
2022/03/18 07:32:47;;;;;;;3.38;1.30;;;;;;;;;;5086890;28;20036;-68
2022/03/18 07:35:14;;;;;;;3.22;1.15;;;;;;;;;;5087994;28;20130;-69
2022/03/18 07:37:40;;;;;;;3.30;1.50;;;;;;;;;;5084641;28;20387;-68
2022/03/18 07:40:09;;;;;;;3.60;1.23;;;;;;;;;;5087518;28;20040;-68
2022/03/18 07:42:44;;;;;;;4.13;1.10;;;;;;;;;;5085936;28;20043;-71
2022/03/18 07:45:12;;;;;;;7.95;1.42;;;;;;;;;;5086714;28;20537;-69
2022/03/18 07:47:38;;;;;;;8.27;1.67;;;;;;;;;;5085571;28;20328;-69
2022/03/18 07:50:05;;;;;;;7.25;1.80;;;;;;;;;;5068655;28;20516;-68
2022/03/18 07:52:31;;;;;;;6.80;1.50;;;;;;;;;;5086672;28;20043;-68
2022/03/18 07:54:57;;;;;;;3.83;1.27;;;;;;;;;;5086394;28;20044;-69
2022/03/18 07:57:23;;;;;;;8.70;1.92;;;;;;;;;;5086558;28;20054;-68
2022/03/18 07:59:49;;;;;;;4.00;1.42;;;;;;;;;;5086589;28;20044;-69
2022/03/18 08:02:15;;;;;;;6.15;1.85;;;;;;;;;;5086734;28;20044;-69
2022/03/18 08:04:41;;;;;;;3.15;1.30;;;;;;;;;;5086119;28;20055;-69
2022/03/18 08:07:07;;;;;;;3.22;1.55;;;;;;;;;;5068243;28;20108;-70
2022/03/18 08:09:33;;;;;;;2.50;1.10;;;;;;;;;;5066768;28;20104;-70
2022/03/18 08:12:00;;;;;;;2.63;1.10;;;;;;;;;;5086555;28;20044;-70
2022/03/18 08:14:26;;;;;;;19.65;1.67;;;;;;;;;;5086007;28;20044;-71
2022/03/18 08:16:52;;;;;;;2.95;1.30;;;;;;;;;;5086652;28;20366;-70
2022/03/18 08:19:18;;;;;;;2.70;1.50;;;;;;;;;;5068559;28;20047;-70
2022/03/18 08:21:44;;;;;;;3.05;1.25;;;;;;;;;;5086074;28;20044;-71
2022/03/18 08:24:11;;;;;;;6.32;1.88;;;;;;;;;;5086312;28;20134;-71
2022/03/18 08:26:38;;;;;;;3.38;1.33;;;;;;;;;;5048805;28;20051;-71
2022/03/18 08:29:07;;;;;;;5.35;1.30;;;;;;;;;;5086630;28;20450;-71
2022/03/18 08:31:33;;;;;;;5.50;1.40;;;;;;;;;;5085928;28;20080;-71
2022/03/18 08:34:00;;;;;;;3.10;1.20;;;;;;;;;;5086225;28;20061;-71
2022/03/18 08:36:26;;;;;;;3.10;1.30;;;;;;;;;;5085583;28;20087;-71
2022/03/18 08:38:52;;;;;;;4.70;1.40;;;;;;;;;;5067578;28;20170;-71
2022/03/18 08:41:18;;;;;;;3.80;1.20;;;;;;;;;;5086666;28;20044;-71
2022/03/18 08:43:45;;;;;;;3.53;1.58;;;;;;;;;;5086184;28;20046;-71
2022/03/18 08:46:11;;;;;;;4.22;1.30;;;;;;;;;;5085910;28;20046;-70
2022/03/18 08:48:37;;;;;;;3.78;1.33;;;;;;;;;;5049383;28;20071;-71
2022/03/18 08:51:03;;;;;;;3.83;1.50;;;;;;;;;;5086551;28;20044;-71
2022/03/18 08:53:29;;;;;;;3.38;1.20;;;;;;;;;;5085743;28;20043;-71
2022/03/18 08:55:56;;;;;;;3.83;1.10;;;;;;;;;;5085984;28;20112;-71
2022/03/18 08:58:22;;;;;;;2.58;1.23;;;;;;;;;;5087265;28;20040;-71
2022/03/18 09:00:48;;;;;;;5.18;1.63;;;;;;;;;;5087130;28;20036;-71
2022/03/18 09:03:14;;;;;;;4.90;1.75;;;;;;;;;;5091338;28;20136;-72
2022/03/18 09:05:42;;;;;;;2.83;1.30;;;;;;;;;;5092288;28;20445;-71
2022/03/18 09:08:08;;;;;;;3.35;1.20;;;;;;;;;;5091653;28;20494;-73
2022/03/18 09:10:34;;;;;;;2.40;1.10;;;;;;;;;;5092418;28;20042;-72
2022/03/18 09:13:00;;;;;;;2.95;1.38;;;;;;;;;;5092203;28;20143;-71
2022/03/18 09:15:27;;;;;;;2.50;1.10;;;;;;;;;;5092159;28;20142;-71
2022/03/18 09:17:53;;;;;;;4.55;1.63;;;;;;;;;;5090222;28;20052;-71
2022/03/18 09:20:19;;;;;;;4.25;1.30;;;;;;;;;;5092719;28;20048;-71
2022/03/18 09:22:45;;;;;;;4.63;1.40;;;;;;;;;;5073033;28;20072;-72
2022/03/18 09:25:12;;;;;;;2.80;1.20;;;;;;;;;;5091920;28;20044;-71
2022/03/18 09:27:38;;;;;;;3.40;1.10;;;;;;;;;;5073938;28;20048;-72
2022/03/18 09:30:05;;;;;;;2.78;1.20;;;;;;;;;;5056866;28;20475;-72
2022/03/18 09:32:31;;;;;;;4.13;1.40;;;;;;;;;;5091380;28;20086;-73
2022/03/18 09:34:58;;;;;;;2.58;1.13;;;;;;;;;;5090917;28;20063;-71
2022/03/18 09:37:24;;;;;;;3.85;1.30;;;;;;;;;;5093777;28;20493;-71
2022/03/18 09:39:50;;;;;;;2.78;1.25;;;;;;;;;;5093380;28;20094;-71
2022/03/18 09:42:16;;;;;;;5.05;1.42;;;;;;;;;;5094075;28;20048;-70
2022/03/18 09:44:42;;;;;;;4.55;1.50;;;;;;;;;;5093885;28;20059;-71
2022/03/18 09:47:09;;;;;;;4.35;1.73;;;;;;;;;;5094173;28;20109;-72
2022/03/18 09:49:36;;;;;;;5.70;1.65;;;;;;;;;;5075531;28;20048;-71
2022/03/18 09:52:03;;;;;;;3.53;1.45;;;;;;;;;;5076243;28;20040;-71
2022/03/18 09:54:30;;;;;;;3.35;1.40;;;;;;;;;;5093851;28;20109;-72
2022/03/18 09:56:56;;;;;;;4.75;1.58;;;;;;;;;;5094245;28;20047;-71
2022/03/18 09:59:27;;;;;;;4.25;1.60;;;;;;;;;;5094057;28;20440;-72
2022/03/18 10:02:11;;;;;;;3.60;1.50;;;;;;;;;;5094100;28;20048;-71
2022/03/18 10:04:51;;;;;;;3.47;1.33;;;;;;;;;;5075667;28;20444;-71
2022/03/18 10:07:17;;;;;;;4.30;1.50;;;;;;;;;;5094487;28;20410;-70
2022/03/18 10:09:43;;;;;;;5.30;1.70;;;;;;;;;;5094113;28;20414;-72
2022/03/18 10:12:27;;;;;;;3.78;1.70;;;;;;;;;;5094002;28;20044;-73
2022/03/18 10:15:03;;;;;;;4.82;1.73;;;;;;;;;;5073143;28;20056;-72
2022/03/18 10:17:37;;;;;;;5.35;1.58;;;;;;;;;;5090904;28;20555;-72
2022/03/18 10:20:04;;;;;;;3.70;1.40;;;;;;;;;;5072610;28;20133;-74
2022/03/18 10:22:30;;;;;;;4.32;1.63;;;;;;;;;;5090061;28;20048;-71
2022/03/18 10:24:56;;;;;;;3.03;1.55;;;;;;;;;;5072601;28;20048;-71
2022/03/18 10:27:23;;;;;;;4.13;1.83;;;;;;;;;;5090361;28;20139;-71
2022/03/18 10:29:50;;;;;;;7.80;1.98;;;;;;;;;;5071950;28;20055;-71
2022/03/18 10:32:17;;;;;;;4.38;1.77;;;;;;;;;;5090429;28;20047;-72
2022/03/18 10:37:41;;;;;;;4.77;1.60;;;;;;;;;;5050402;28;20053;-72
2022/03/18 10:40:07;;;;;;;5.50;1.85;;;;;;;;;;5050186;28;20056;-72
2022/03/18 10:42:33;;;;;;;5.72;1.77;;;;;;;;;;5047867;28;20166;-72
2022/03/18 10:45:01;;;;;;;5.82;2.42;;;;;;;;;;5048910;28;20063;-71
2022/03/18 10:47:27;;;;;;;5.22;1.85;;;;;;;;;;5050102;28;20120;-71
2022/03/18 10:50:11;;;;;;;6.22;2.10;;;;;;;;;;5049276;28;20049;-72
2022/03/18 10:52:42;;;;;;;4.55;2.13;;;;;;;;;;5049917;28;20041;-71
2022/03/18 10:55:22;;;;;;;5.40;2.40;;;;;;;;;;5049750;28;20110;-71
2022/03/18 10:57:57;;;;;;;6.60;2.30;;;;;;;;;;5028159;28;20053;-70
2022/03/18 11:00:25;;;;;;;5.07;1.92;;;;;;;;;;5030508;28;20139;-72
2022/03/18 11:02:52;;;;;;;6.78;2.20;;;;;;;;;;5046537;28;20597;-72
2022/03/18 11:05:22;;;;;;;4.25;1.98;;;;;;;;;;5035337;28;20057;-72
2022/03/18 11:07:51;;;;;;;6.55;2.40;;;;;;;;;;5029946;28;20049;-73
2022/03/18 11:13:04;;;;;;;6.53;2.28;;;;;;;;;;5048904;28;20152;-71
2022/03/18 11:15:31;;;;;;;6.05;2.58;;;;;;;;;;5049184;28;20057;-70
2022/03/18 11:17:57;;;;;;;7.90;2.72;;;;;;;;;;5049341;28;20075;-72
2022/03/18 11:20:27;;;;;;;5.70;2.35;;;;;;;;;;5049505;28;20509;-73
2022/03/18 11:22:54;;;;;;;7.00;2.50;;;;;;;;;;5047798;28;20048;-72
2022/03/18 11:25:21;;;;;;;8.65;2.90;;;;;;;;;;5049497;28;20052;-72
2022/03/18 11:27:48;;;;;;;7.68;2.95;;;;;;;;;;5048675;28;20391;-75
2022/03/18 11:30:18;;;;;;;6.30;2.75;;;;;;;;;;5048816;28;20049;-74
2022/03/18 11:32:44;;;;;;;6.55;2.40;;;;;;;;;;5047775;28;20540;-71
2022/03/18 11:35:11;;;;;;;8.65;3.00;;;;;;;;;;5047937;28;20057;-71
2022/03/18 11:37:38;;;;;;;7.65;2.97;;;;;;;;;;5049147;28;20099;-73
2022/03/18 11:40:16;;;;;;;7.55;2.90;;;;;;;;;;5048976;28;20056;-72
2022/03/18 11:42:45;;;;;;;7.20;3.00;;;;;;;;;;5047854;28;20045;-72
2022/03/18 11:45:12;;;;;;;6.93;3.42;;;;;;;;;;5049048;28;20094;-72
2022/03/18 11:47:40;;;;;;;6.97;3.17;;;;;;;;;;5048541;28;20434;-72
2022/03/18 11:50:25;;;;;;;11.85;4.30;;;;;;;;;;5048812;28;20045;-70
2022/03/18 11:52:58;;;;;;;10.15;4.30;;;;;;;;;;5047056;28;20468;-70
2022/03/18 11:55:24;;;;;;;10.82;3.95;;;;;;;;;;5048426;28;20123;-71
2022/03/18 11:57:50;;;;;;;7.97;3.38;;;;;;;;;;5048211;28;20084;-72
2022/03/18 12:00:41;;;;;;;7.60;2.92;;;;;;;;;;5048894;28;20060;-71
2022/03/18 12:03:07;;;;;;;10.15;3.55;;;;;;;;;;5049229;28;20045;-70
2022/03/18 12:05:33;;;;;;;9.52;3.40;;;;;;;;;;5049369;28;20037;-69
2022/03/18 12:07:59;;;;;;;8.80;3.70;;;;;;;;;;5049353;28;20084;-71
2022/03/18 12:10:35;;;;;;;8.88;3.20;;;;;;;;;;5047966;28;20419;-71
2022/03/18 12:13:05;;;;;;;8.38;3.40;;;;;;;;;;5049179;28;20179;-71
2022/03/18 12:15:32;;;;;;;10.77;3.30;;;;;;;;;;5047271;28;20403;-69
2022/03/18 12:17:58;;;;;;;10.93;3.85;;;;;;;;;;5048803;28;20746;-71
2022/03/18 12:20:27;;;;;;;8.95;3.58;;;;;;;;;;5044584;28;20056;-72
2022/03/18 12:22:54;;;;;;;9.18;2.95;;;;;;;;;;5048145;28;20541;-71
2022/03/18 12:25:22;;;;;;;7.72;3.65;;;;;;;;;;5048805;28;20182;-72
2022/03/18 12:27:50;;;;;;;7.03;3.00;;;;;;;;;;5048201;28;20565;-71
2022/03/18 12:30:18;;;;;;;49.00;4.25;;;;;;;;;;5048099;28;20585;-69
2022/03/18 12:32:51;;;;;;;11.77;3.22;;;;;;;;;;5047909;28;20636;-69
2022/03/18 12:35:18;;;;;;;29.63;3.45;;;;;;;;;;5046997;28;20458;-69
2022/03/18 12:37:48;;;;;;;12.70;3.13;;;;;;;;;;5047409;28;20049;-69
2022/03/18 12:40:14;;;;;;;;;;;;;;;;;;5049047;28;20040;-69
2022/03/18 12:42:47;;;;;;;17.58;3.63;;;;;;;;;;5048460;28;20386;-69
2022/03/18 12:45:23;;;;;;;9.35;3.20;;;;;;;;;;5048437;28;20041;-69
2022/03/18 12:47:50;;;;;;;9.02;3.28;;;;;;;;;;5047295;28;20056;-68
2022/03/18 12:50:16;;;;;;;8.80;2.60;;;;;;;;;;5046787;28;20053;-68
2022/03/18 12:52:45;;;;;;;8.45;2.92;;;;;;;;;;5048046;28;20053;-68
2022/03/18 12:55:12;;;;;;;7.00;3.10;;;;;;;;;;5048144;28;20049;-68
2022/03/18 12:57:39;;;;;;;12.13;2.75;;;;;;;;;;5048037;28;20076;-68
2022/03/18 13:00:08;;;;;;;10.18;2.90;;;;;;;;;;5047566;28;20045;-68
2022/03/18 13:02:37;;;;;;;7.00;2.55;;;;;;;;;;5047392;28;20056;-69
2022/03/18 13:05:07;;;;;;;10.60;2.92;;;;;;;;;;5046836;28;20049;-69
2022/03/18 13:07:33;;;;;;;8.35;2.80;;;;;;;;;;5047743;28;20111;-69
2022/03/18 13:09:59;;;;;;;7.65;3.20;;;;;;;;;;5047763;28;20523;-68
2022/03/18 13:12:26;;;;;;;8.50;2.67;;;;;;;;;;5046218;28;20049;-68
2022/03/18 13:14:56;;;;;;;6.03;2.70;;;;;;;;;;5046065;28;20114;-69
2022/03/18 13:17:22;;;;;;;;;;;;;;;;;;5048194;28;20052;-68
2022/03/18 13:19:50;;;;;;;5.63;2.35;;;;;;;;;;5047612;28;19924;-69
2022/03/18 13:22:20;;;;;;;6.43;2.70;;;;;;;;;;5047156;28;20472;-68
2022/03/18 13:24:47;;;;;;;6.60;2.83;;;;;;;;;;5029735;28;20055;-68
2022/03/18 13:27:13;;;;;;;5.80;2.47;;;;;;;;;;5048018;28;20120;-68
2022/03/18 13:35:10;;;;;;;5.15;2.50;;;;;;;;;;5081924;28;20066;-66
2022/03/18 13:37:36;;;;;;;9.35;3.58;;;;;;;;;;5087983;28;20399;-71
2022/03/18 13:40:10;;;;;;;11.43;4.03;;;;;;;;;;5088082;28;20040;-70
2022/03/18 13:42:36;;;;;;;13.07;4.22;;;;;;;;;;5070212;28;20382;-71
2022/03/18 13:45:05;;;;;;;12.77;4.13;;;;;;;;;;5088353;28;20059;-73
2022/03/18 13:47:48;;;;;;;10.15;3.45;;;;;;;;;;5068671;28;20569;-73
2022/03/18 13:50:14;;;;;;;10.73;3.42;;;;;;;;;;5056946;28;20047;-70
2022/03/18 13:52:40;;;;;;;23.40;3.53;;;;;;;;;;5091513;28;20090;-71
2022/03/18 13:55:06;;;;;;;9.88;3.38;;;;;;;;;;5073124;28;20478;-70
2022/03/18 13:57:45;;;;;;;9.43;2.95;;;;;;;;;;5091629;28;20425;-70
2022/03/18 14:00:11;;;;;;;15.43;3.72;;;;;;;;;;5090651;28;20123;-69
2022/03/18 14:02:38;;;;;;;9.27;3.22;;;;;;;;;;5087069;28;20044;-71
2022/03/18 14:05:04;;;;;;;13.38;3.53;;;;;;;;;;5072650;28;20044;-69
2022/03/18 14:07:49;;;;;;;9.32;3.33;;;;;;;;;;5073737;28;20048;-71
2022/03/18 14:10:17;;;;;;;9.43;3.03;;;;;;;;;;5090722;28;20051;-72
2022/03/18 14:13:02;;;;;;;9.45;3.15;;;;;;;;;;5092004;28;20100;-70
2022/03/18 14:15:36;;;;;;;7.57;2.78;;;;;;;;;;5074528;28;20079;-72
2022/03/18 14:18:08;;;;;;;7.35;2.40;;;;;;;;;;5091951;28;20516;-71
2022/03/18 14:20:35;;;;;;;6.97;3.17;;;;;;;;;;5073454;28;20052;-71
2022/03/18 14:23:15;;;;;;;8.75;3.00;;;;;;;;;;5092203;28;20078;-72
2022/03/18 14:25:41;;;;;;;9.18;3.50;;;;;;;;;;5091771;28;20040;-73
2022/03/18 14:28:09;;;;;;;8.80;3.42;;;;;;;;;;5091851;28;20052;-72
2022/03/18 14:30:35;;;;;;;7.95;3.20;;;;;;;;;;5091226;28;20383;-72
2022/03/18 14:33:02;;;;;;;8.63;2.78;;;;;;;;;;5090212;28;20119;-70
2022/03/18 14:35:30;;;;;;;7.47;2.45;;;;;;;;;;5090702;28;20091;-70
2022/03/18 14:37:57;;;;;;;10.85;3.03;;;;;;;;;;5091496;28;20384;-70
2022/03/18 14:40:23;;;;;;;8.73;3.30;;;;;;;;;;5072946;28;20115;-71
2022/03/18 14:42:50;;;;;;;7.55;2.97;;;;;;;;;;5073090;28;20087;-70
2022/03/18 14:45:17;;;;;;;6.72;2.53;;;;;;;;;;5073519;28;20131;-69
2022/03/18 14:47:44;;;;;;;7.82;2.83;;;;;;;;;;5089857;28;20074;-71
2022/03/18 14:50:12;;;;;;;8.18;2.63;;;;;;;;;;5091041;28;20115;-71
2022/03/18 14:52:38;;;;;;;8.60;2.70;;;;;;;;;;5089342;28;20516;-76
2022/03/18 14:57:50;;;;;;;8.55;2.50;;;;;;;;;;5071926;28;20056;-76
2022/03/18 15:00:16;;;;;;;6.68;2.42;;;;;;;;;;5070777;28;20125;-75
2022/03/18 15:02:42;;;;;;;8.18;2.33;;;;;;;;;;5072115;28;20088;-76
2022/03/18 15:05:09;;;;;;;10.35;2.15;;;;;;;;;;5055446;28;20044;-75
2022/03/18 15:07:35;;;;;;;8.43;2.50;;;;;;;;;;5071894;28;20072;-76
2022/03/18 15:10:01;;;;;;;11.20;2.70;;;;;;;;;;5062054;28;20048;-77